Terminal Aerodrome Forecast
Issued by NWS

Home | Current Version | Previous Version | Text Only | Print | Product List | Glossary On
Versions: 1 2 3 4 5 6 7 8 9 10 11 12 13 14 15 16
000
FTUS44 KOHX 271128
TAFCKV
TAF
KCKV 271128Z 2712/2812 24004KT P6SM BKN250
     FM271400 24006KT P6SM FEW050 BKN190
     FM272200 24006KT 5SM -SHRA OVC050 PROB30 2807/2812 2SM TSRA
      OVC035CB=

USA.gov is the U.S. government's official web portal to all federal, state and local government web resources and services.